createdAt,value
2022-08-04T00:00:06.702Z,38.40
2022-08-04T00:05:27.004Z,38.50
2022-08-04T00:10:47.123Z,38.40
2022-08-04T00:16:07.507Z,38.40
2022-08-04T00:21:27.711Z,38.40
2022-08-04T00:26:47.987Z,38.40
2022-08-04T00:32:08.288Z,38.40
2022-08-04T00:37:28.348Z,38.50
2022-08-04T00:42:49.474Z,38.50
2022-08-04T00:48:19.379Z,38.50
2022-08-04T00:53:39.504Z,38.50
2022-08-04T00:59:10.228Z,38.50
2022-08-04T01:04:30.322Z,38.50
2022-08-04T01:09:50.452Z,38.50
2022-08-04T01:15:10.815Z,38.50
2022-08-04T01:20:30.878Z,38.50
2022-08-04T01:25:50.959Z,38.50
2022-08-04T01:31:12.951Z,38.50
2022-08-04T01:36:33.319Z,38.50
2022-08-04T01:41:58.341Z,38.60
2022-08-04T01:47:18.926Z,38.50
2022-08-04T01:52:39.167Z,38.50
2022-08-04T01:57:59.217Z,38.50
2022-08-04T02:03:19.331Z,38.50
2022-08-04T02:08:39.392Z,38.60
2022-08-04T02:13:59.638Z,38.60
2022-08-04T02:19:19.704Z,38.60
2022-08-04T02:24:39.957Z,38.60
2022-08-04T02:30:00.170Z,38.60
2022-08-04T02:35:20.362Z,38.60
2022-08-04T02:40:40.456Z,38.60
2022-08-04T02:46:00.691Z,38.60
2022-08-04T02:51:20.775Z,38.60
2022-08-04T02:56:41.150Z,38.60
2022-08-04T03:02:01.221Z,38.60
2022-08-04T03:07:21.641Z,38.60
2022-08-04T03:12:41.538Z,38.60
2022-08-04T03:18:01.735Z,38.60
2022-08-04T03:23:21.795Z,38.60
2022-08-04T03:28:42.681Z,38.70
2022-08-04T03:34:03.187Z,38.60
2022-08-04T03:39:23.517Z,38.70
2022-08-04T03:44:43.634Z,38.60
2022-08-04T03:50:04.518Z,38.60
2022-08-04T03:55:24.480Z,38.70
2022-08-04T04:00:44.611Z,38.70
2022-08-04T04:06:04.714Z,38.70
2022-08-04T04:11:24.777Z,38.80
2022-08-04T04:16:44.834Z,38.70
2022-08-04T04:22:05.128Z,38.70
2022-08-04T04:27:25.187Z,38.70
2022-08-04T04:32:45.324Z,38.70
2022-08-04T04:38:05.518Z,38.80
2022-08-04T04:43:52.269Z,38.70
2022-08-04T04:49:06.028Z,38.80
2022-08-04T04:54:26.182Z,38.80
2022-08-04T04:59:46.311Z,38.80
2022-08-04T05:05:06.486Z,38.80
2022-08-04T05:10:26.516Z,38.80
2022-08-04T05:15:46.895Z,38.80
2022-08-04T05:21:07.005Z,38.80
2022-08-04T05:26:27.193Z,38.90
2022-08-04T05:31:47.297Z,38.90
2022-08-04T05:37:07.481Z,38.90
2022-08-04T05:42:27.529Z,38.90
2022-08-04T05:47:47.757Z,38.80
2022-08-04T05:53:07.811Z,38.90
2022-08-04T05:58:28.022Z,38.90
2022-08-04T06:03:48.040Z,38.90
2022-08-04T06:09:08.373Z,38.90
2022-08-04T06:14:28.604Z,38.90
2022-08-04T06:20:03.983Z,38.90
2022-08-04T06:25:29.286Z,38.90
2022-08-04T06:30:49.321Z,38.90
2022-08-04T06:36:09.577Z,38.80
2022-08-04T06:41:29.803Z,38.90
2022-08-04T06:46:49.961Z,38.80
2022-08-04T06:52:10.196Z,38.80
2022-08-04T06:57:30.351Z,38.80
2022-08-04T07:02:50.506Z,38.80
2022-08-04T07:08:10.659Z,38.80
2022-08-04T07:13:30.799Z,38.80
2022-08-04T07:18:50.888Z,38.80
2022-08-04T07:24:10.840Z,38.80
2022-08-04T07:29:31.147Z,38.80
2022-08-04T07:34:51.220Z,38.80
2022-08-04T07:40:13.005Z,38.80
2022-08-04T07:45:32.966Z,38.80
2022-08-04T07:50:53.149Z,38.80
2022-08-04T07:56:13.296Z,38.80
2022-08-04T08:01:33.574Z,38.80
2022-08-04T08:06:53.674Z,38.80
2022-08-04T08:12:38.285Z,38.80
2022-08-04T08:17:58.454Z,38.80
2022-08-04T08:23:19.020Z,38.70
2022-08-04T08:28:41.818Z,38.80
2022-08-04T08:34:01.956Z,38.80
2022-08-04T08:39:24.750Z,38.70
2022-08-04T08:44:44.716Z,38.70
2022-08-04T08:50:05.085Z,38.80
2022-08-04T08:55:24.904Z,38.70
2022-08-04T09:00:45.185Z,38.70
2022-08-04T09:06:05.374Z,38.60
2022-08-04T09:11:25.677Z,38.70
2022-08-04T09:16:45.791Z,38.70
2022-08-04T09:22:09.527Z,38.70
2022-08-04T09:27:32.631Z,38.70
2022-08-04T09:32:52.708Z,38.70
2022-08-04T09:38:12.969Z,38.60
2022-08-04T09:43:59.402Z,38.60
2022-08-04T09:49:13.485Z,38.60
2022-08-04T09:54:33.767Z,38.60
2022-08-04T09:59:54.040Z,38.60
2022-08-04T10:05:14.193Z,38.60
2022-08-04T10:10:34.430Z,38.60
2022-08-04T10:15:54.417Z,38.60
2022-08-04T10:21:15.826Z,38.60
2022-08-04T10:26:35.925Z,38.60
2022-08-04T10:31:56.102Z,38.60
2022-08-04T10:37:16.217Z,38.60
2022-08-04T10:42:36.237Z,38.60
2022-08-04T10:47:56.382Z,38.60
2022-08-04T10:53:17.507Z,38.60
2022-08-04T10:58:47.357Z,38.60
2022-08-04T11:04:08.672Z,38.60
2022-08-04T11:09:28.774Z,39.00
2022-08-04T11:14:49.021Z,39.60
2022-08-04T11:20:34.782Z,40.10
2022-08-04T11:25:51.856Z,40.20
2022-08-04T11:31:12.340Z,40.10
2022-08-04T11:36:32.540Z,40.00
2022-08-04T11:41:52.764Z,39.90
2022-08-04T11:47:13.081Z,39.90
2022-08-04T11:52:33.005Z,39.90
2022-08-04T11:57:54.018Z,39.80
2022-08-04T12:03:14.824Z,39.80
2022-08-04T12:08:34.946Z,39.80
2022-08-04T12:14:00.193Z,39.70
2022-08-04T12:19:20.746Z,39.70
2022-08-04T12:24:42.808Z,39.70
2022-08-04T12:30:58.561Z,39.60
2022-08-04T12:36:10.587Z,39.60
2022-08-04T12:41:23.853Z,39.60
2022-08-04T12:46:43.947Z,39.50
2022-08-04T12:52:08.319Z,39.50
2022-08-04T12:57:29.251Z,39.50
2022-08-04T13:02:49.341Z,39.30
2022-08-04T13:08:09.513Z,39.20
2022-08-04T13:13:29.681Z,39.10
2022-08-04T13:18:49.827Z,39.00
2022-08-04T13:24:21.031Z,39.50
2022-08-04T13:29:58.652Z,40.00
2022-08-04T13:35:54.108Z,39.80
2022-08-04T13:41:04.598Z,39.70
2022-08-04T13:46:27.117Z,39.60
2022-08-04T13:51:57.434Z,39.60
2022-08-04T13:57:19.165Z,39.40
2022-08-04T14:02:39.397Z,39.40
2022-08-04T14:07:59.597Z,39.40
2022-08-04T14:13:19.658Z,39.40
2022-08-04T14:18:39.960Z,39.40
2022-08-04T14:24:00.082Z,39.30
2022-08-04T14:29:28.623Z,39.30
2022-08-04T14:34:49.492Z,39.30
2022-08-04T14:40:29.933Z,39.40
2022-08-04T14:45:54.282Z,39.30
2022-08-04T14:51:14.956Z,39.40
2022-08-04T14:56:46.739Z,39.40
2022-08-04T15:02:07.565Z,39.40
2022-08-04T15:07:27.529Z,39.40
2022-08-04T15:12:47.684Z,39.30
2022-08-04T15:18:07.813Z,39.30
2022-08-04T15:23:38.648Z,39.30
2022-08-04T15:28:59.252Z,39.30
2022-08-04T15:34:19.278Z,39.40
2022-08-04T15:39:47.387Z,39.40
2022-08-04T15:45:07.459Z,39.30
2022-08-04T15:50:28.193Z,39.30
2022-08-04T15:55:48.852Z,39.40
2022-08-04T16:01:12.899Z,39.30
2022-08-04T16:06:32.990Z,39.40
2022-08-04T16:11:52.828Z,39.30
2022-08-04T16:17:12.858Z,39.30
2022-08-04T16:22:33.117Z,39.40
2022-08-04T16:27:53.271Z,39.40
2022-08-04T16:33:13.600Z,39.40
2022-08-04T16:38:33.682Z,39.40
2022-08-04T16:43:53.881Z,39.40
2022-08-04T16:49:13.985Z,39.40
2022-08-04T16:54:34.163Z,39.40
2022-08-04T16:59:54.254Z,39.40
2022-08-04T17:05:14.419Z,39.40
2022-08-04T17:10:54.729Z,39.50
2022-08-04T17:16:18.351Z,39.50
2022-08-04T17:21:38.831Z,39.40
2022-08-04T17:26:59.072Z,39.50
2022-08-04T17:32:19.140Z,39.60
2022-08-04T17:37:52.081Z,39.60
2022-08-04T17:44:05.062Z,40.00
2022-08-04T17:48:54.088Z,39.70
2022-08-04T17:54:14.199Z,39.70
2022-08-04T17:59:55.589Z,39.80
2022-08-04T18:05:14.700Z,39.80
2022-08-04T18:10:38.434Z,39.70
2022-08-04T18:16:05.366Z,39.80
2022-08-04T18:21:25.287Z,39.90
2022-08-04T18:26:45.874Z,39.90
2022-08-04T18:32:06.017Z,40.00
2022-08-04T18:38:06.353Z,40.00
2022-08-04T18:43:14.051Z,40.00
2022-08-04T18:48:36.761Z,40.10
2022-08-04T18:53:59.297Z,40.20
2022-08-04T18:59:19.495Z,40.10
2022-08-04T19:04:39.596Z,40.10
2022-08-04T19:10:01.334Z,40.10
2022-08-04T19:15:21.996Z,40.20
2022-08-04T19:20:54.227Z,40.20
2022-08-04T19:26:23.599Z,40.20
2022-08-04T19:31:48.480Z,40.30
2022-08-04T19:37:12.021Z,40.30
2022-08-04T19:42:35.175Z,40.30
2022-08-04T19:48:17.678Z,40.30
2022-08-04T19:53:38.134Z,40.30
2022-08-04T19:59:03.149Z,40.30
2022-08-04T20:04:24.408Z,40.30
2022-08-04T20:09:53.436Z,40.30
2022-08-04T20:15:14.957Z,40.30
2022-08-04T20:20:35.284Z,40.20
2022-08-04T20:26:00.543Z,41.20
2022-08-04T20:31:20.557Z,41.50
2022-08-04T20:36:49.534Z,42.20
2022-08-04T20:42:11.454Z,42.00
2022-08-04T20:47:35.471Z,41.80
2022-08-04T20:52:55.488Z,41.90
2022-08-04T20:58:18.287Z,42.10
2022-08-04T21:03:51.016Z,42.20
2022-08-04T21:09:15.584Z,42.20
2022-08-04T21:14:47.778Z,42.40
2022-08-04T21:20:07.697Z,42.50
2022-08-04T21:25:32.664Z,42.00
2022-08-04T21:31:10.930Z,41.30
2022-08-04T21:36:42.093Z,40.60
2022-08-04T21:47:46.550Z,39.70
2022-08-04T21:53:22.889Z,39.60
2022-08-04T21:58:44.675Z,39.30
2022-08-04T22:04:05.085Z,39.20
2022-08-04T22:09:25.210Z,38.80
2022-08-04T22:14:50.219Z,38.80
2022-08-04T22:25:53.537Z,39.00
2022-08-04T22:31:23.932Z,39.00
2022-08-04T22:36:44.992Z,38.90
2022-08-04T22:42:05.042Z,38.90
2022-08-04T22:47:25.628Z,38.90
2022-08-04T22:52:49.725Z,38.90
2022-08-04T22:58:16.546Z,39.00
2022-08-04T23:03:38.558Z,39.40
2022-08-04T23:08:59.346Z,40.40
2022-08-04T23:14:19.647Z,40.30
2022-08-04T23:19:39.887Z,40.50
2022-08-04T23:25:00.176Z,40.70
2022-08-04T23:30:20.316Z,40.80
2022-08-04T23:35:41.951Z,40.90
2022-08-04T23:41:03.179Z,40.90
2022-08-04T23:46:27.373Z,41.10
2022-08-04T23:51:47.421Z,41.00
2022-08-04T23:57:17.295Z,41.00
